sensor_id;sensor_type;location;lat;lon;timestamp;pressure;altitude;pressure_sealevel;temperature;humidity
59168;BME280;70412;55.048;73.268;2024-01-15T00:01:21;100509.41;;;-23.47;91.74
59168;BME280;70412;55.048;73.268;2024-01-15T00:04:27;100508.75;;;-23.45;92.04
59168;BME280;70412;55.048;73.268;2024-01-15T00:07:30;100507.13;;;-23.44;91.30
59168;BME280;70412;55.048;73.268;2024-01-15T00:10:32;100511.44;;;-23.53;91.53
59168;BME280;70412;55.048;73.268;2024-01-15T00:13:34;100512.31;;;-23.53;91.83
59168;BME280;70412;55.048;73.268;2024-01-15T00:16:37;100520.41;;;-23.56;91.75
59168;BME280;70412;55.048;73.268;2024-01-15T00:19:39;100517.84;;;-23.57;91.59
59168;BME280;70412;55.048;73.268;2024-01-15T00:22:42;100529.94;;;-23.62;91.28
59168;BME280;70412;55.048;73.268;2024-01-15T00:25:44;100510.38;;;-23.82;91.38
59168;BME280;70412;55.048;73.268;2024-01-15T00:28:46;100536.22;;;-23.78;91.70
59168;BME280;70412;55.048;73.268;2024-01-15T00:31:49;100567.81;;;-23.76;92.22
59168;BME280;70412;55.048;73.268;2024-01-15T00:34:51;100557.56;;;-23.80;91.82
59168;BME280;70412;55.048;73.268;2024-01-15T00:37:54;100557.56;;;-23.80;92.33
59168;BME280;70412;55.048;73.268;2024-01-15T00:40:56;100566.63;;;-23.81;92.54
59168;BME280;70412;55.048;73.268;2024-01-15T00:43:59;100567.94;;;-23.86;91.92
59168;BME280;70412;55.048;73.268;2024-01-15T00:47:02;100588.53;;;-23.87;92.17
59168;BME280;70412;55.048;73.268;2024-01-15T00:50:05;100586.16;;;-23.86;92.21
59168;BME280;70412;55.048;73.268;2024-01-15T00:53:08;100588.88;;;-23.94;92.42
59168;BME280;70412;55.048;73.268;2024-01-15T00:56:10;100600.31;;;-23.96;92.54
59168;BME280;70412;55.048;73.268;2024-01-15T00:59:16;100598.59;;;-23.97;92.32
59168;BME280;70412;55.048;73.268;2024-01-15T01:02:18;100596.88;;;-23.98;92.40
59168;BME280;70412;55.048;73.268;2024-01-15T01:05:29;100602.13;;;-24.05;92.45
59168;BME280;70412;55.048;73.268;2024-01-15T01:08:32;100603.75;;;-24.06;92.34
59168;BME280;70412;55.048;73.268;2024-01-15T01:11:34;100609.56;;;-24.05;92.44
59168;BME280;70412;55.048;73.268;2024-01-15T01:14:37;100617.97;;;-24.03;92.23
59168;BME280;70412;55.048;73.268;2024-01-15T01:17:39;100616.03;;;-24.07;91.80
59168;BME280;70412;55.048;73.268;2024-01-15T01:20:42;100615.59;;;-24.13;91.82
59168;BME280;70412;55.048;73.268;2024-01-15T01:23:44;100633.72;;;-24.14;92.10
59168;BME280;70412;55.048;73.268;2024-01-15T01:26:46;100627.25;;;-24.12;92.54
59168;BME280;70412;55.048;73.268;2024-01-15T01:29:49;100646.09;;;-24.14;91.84
59168;BME280;70412;55.048;73.268;2024-01-15T01:32:51;100644.88;;;-24.20;92.01
59168;BME280;70412;55.048;73.268;2024-01-15T01:35:54;100624.63;;;-24.26;92.57
59168;BME280;70412;55.048;73.268;2024-01-15T01:38:56;100642.53;;;-24.18;92.60
59168;BME280;70412;55.048;73.268;2024-01-15T01:41:59;100658.16;;;-24.19;92.38
59168;BME280;70412;55.048;73.268;2024-01-15T01:45:02;100659.75;;;-24.20;92.71
59168;BME280;70412;55.048;73.268;2024-01-15T01:48:06;100658.91;;;-24.20;92.53
59168;BME280;70412;55.048;73.268;2024-01-15T01:51:08;100672.91;;;-24.21;92.65
59168;BME280;70412;55.048;73.268;2024-01-15T01:54:12;100680.13;;;-24.24;92.36
59168;BME280;70412;55.048;73.268;2024-01-15T01:57:16;100676.69;;;-24.26;92.67
59168;BME280;70412;55.048;73.268;2024-01-15T02:00:20;100664.59;;;-24.33;93.06
59168;BME280;70412;55.048;73.268;2024-01-15T02:03:22;100672.38;;;-24.28;93.14
59168;BME280;70412;55.048;73.268;2024-01-15T02:06:25;100676.34;;;-24.30;93.21
59168;BME280;70412;55.048;73.268;2024-01-15T02:09:27;100686.91;;;-24.33;92.80
59168;BME280;70412;55.048;73.268;2024-01-15T02:12:30;100684.44;;;-24.33;92.96
59168;BME280;70412;55.048;73.268;2024-01-15T02:15:32;100699.78;;;-24.37;92.63
59168;BME280;70412;55.048;73.268;2024-01-15T02:18:42;100689.59;;;-24.52;92.87
59168;BME280;70412;55.048;73.268;2024-01-15T02:21:45;100683.69;;;-24.65;92.46
59168;BME280;70412;55.048;73.268;2024-01-15T02:24:47;100717.00;;;-24.50;92.74
59168;BME280;70412;55.048;73.268;2024-01-15T02:27:50;100694.09;;;-24.69;92.42
59168;BME280;70412;55.048;73.268;2024-01-15T02:30:52;100734.84;;;-24.54;93.03
59168;BME280;70412;55.048;73.268;2024-01-15T02:33:55;100732.94;;;-24.58;92.66
59168;BME280;70412;55.048;73.268;2024-01-15T02:36:57;100731.94;;;-24.60;92.89
59168;BME280;70412;55.048;73.268;2024-01-15T02:40:19;100743.47;;;-24.61;92.78
59168;BME280;70412;55.048;73.268;2024-01-15T02:43:22;100754.88;;;-24.63;92.34
59168;BME280;70412;55.048;73.268;2024-01-15T02:46:29;100752.28;;;-24.64;92.41
59168;BME280;70412;55.048;73.268;2024-01-15T02:49:32;100761.97;;;-24.67;92.33
59168;BME280;70412;55.048;73.268;2024-01-15T02:52:35;100775.72;;;-24.71;92.23
59168;BME280;70412;55.048;73.268;2024-01-15T02:55:37;100785.50;;;-24.72;92.71
59168;BME280;70412;55.048;73.268;2024-01-15T02:58:40;100780.84;;;-24.80;92.42
59168;BME280;70412;55.048;73.268;2024-01-15T03:01:42;100792.94;;;-24.72;92.73
59168;BME280;70412;55.048;73.268;2024-01-15T03:04:45;100806.69;;;-24.66;92.51
59168;BME280;70412;55.048;73.268;2024-01-15T03:07:47;100809.91;;;-24.67;92.59
59168;BME280;70412;55.048;73.268;2024-01-15T03:10:50;100798.88;;;-24.70;91.96
59168;BME280;70412;55.048;73.268;2024-01-15T03:13:52;100808.44;;;-24.75;92.05
59168;BME280;70412;55.048;73.268;2024-01-15T03:16:55;100822.88;;;-24.69;91.88
59168;BME280;70412;55.048;73.268;2024-01-15T03:19:58;100816.47;;;-24.67;92.40
59168;BME280;70412;55.048;73.268;2024-01-15T03:23:00;100812.88;;;-24.71;91.93
59168;BME280;70412;55.048;73.268;2024-01-15T03:26:02;100793.88;;;-24.92;91.54
59168;BME280;70412;55.048;73.268;2024-01-15T03:29:05;100827.38;;;-24.75;91.70
59168;BME280;70412;55.048;73.268;2024-01-15T03:32:09;100818.44;;;-24.73;91.48
59168;BME280;70412;55.048;73.268;2024-01-15T03:35:11;100824.38;;;-24.71;91.79
59168;BME280;70412;55.048;73.268;2024-01-15T03:38:14;100794.13;;;-24.89;91.63
59168;BME280;70412;55.048;73.268;2024-01-15T03:41:17;100831.19;;;-24.69;91.45
59168;BME280;70412;55.048;73.268;2024-01-15T03:44:20;100833.16;;;-24.65;91.32
59168;BME280;70412;55.048;73.268;2024-01-15T03:47:22;100837.16;;;-24.55;91.09
59168;BME280;70412;55.048;73.268;2024-01-15T03:50:25;100844.06;;;-24.51;91.09
59168;BME280;70412;55.048;73.268;2024-01-15T03:53:27;100841.97;;;-24.47;90.88
59168;BME280;70412;55.048;73.268;2024-01-15T03:56:30;100842.22;;;-24.43;91.13
59168;BME280;70412;55.048;73.268;2024-01-15T03:59:35;100831.56;;;-24.53;90.96
59168;BME280;70412;55.048;73.268;2024-01-15T04:02:37;100851.94;;;-24.35;90.41
59168;BME280;70412;55.048;73.268;2024-01-15T04:05:40;100830.22;;;-24.49;90.42
59168;BME280;70412;55.048;73.268;2024-01-15T04:08:42;100851.03;;;-24.25;90.30
59168;BME280;70412;55.048;73.268;2024-01-15T04:11:44;100864.00;;;-24.18;90.39
59168;BME280;70412;55.048;73.268;2024-01-15T04:14:47;100870.31;;;-24.11;90.83
59168;BME280;70412;55.048;73.268;2024-01-15T04:17:49;100874.31;;;-24.01;90.69
59168;BME280;70412;55.048;73.268;2024-01-15T04:20:58;100872.34;;;-23.95;89.44
59168;BME280;70412;55.048;73.268;2024-01-15T04:24:01;100871.59;;;-23.94;89.45
59168;BME280;70412;55.048;73.268;2024-01-15T04:27:03;100834.44;;;-24.04;89.39
59168;BME280;70412;55.048;73.268;2024-01-15T04:30:06;100883.69;;;-23.75;89.46
59168;BME280;70412;55.048;73.268;2024-01-15T04:33:09;100890.69;;;-23.60;89.61
59168;BME280;70412;55.048;73.268;2024-01-15T04:36:11;100896.31;;;-23.50;88.84
59168;BME280;70412;55.048;73.268;2024-01-15T04:39:13;100906.91;;;-23.41;88.58
59168;BME280;70412;55.048;73.268;2024-01-15T04:42:16;100921.09;;;-23.29;88.26
59168;BME280;70412;55.048;73.268;2024-01-15T04:45:18;100929.09;;;-23.21;88.29
59168;BME280;70412;55.048;73.268;2024-01-15T04:48:21;100919.22;;;-23.09;88.48
59168;BME280;70412;55.048;73.268;2024-01-15T04:51:25;100904.75;;;-23.15;88.17
59168;BME280;70412;55.048;73.268;2024-01-15T04:54:27;100911.00;;;-23.08;87.24
59168;BME280;70412;55.048;73.268;2024-01-15T04:57:30;100947.88;;;-22.79;86.79
59168;BME280;70412;55.048;73.268;2024-01-15T05:00:35;100934.91;;;-22.75;86.19
59168;BME280;70412;55.048;73.268;2024-01-15T05:03:37;100952.63;;;-22.59;86.04
59168;BME280;70412;55.048;73.268;2024-01-15T05:06:43;100958.50;;;-22.47;85.33
59168;BME280;70412;55.048;73.268;2024-01-15T05:09:45;100965.63;;;-22.40;84.29
59168;BME280;70412;55.048;73.268;2024-01-15T05:12:47;100958.91;;;-22.29;83.85
59168;BME280;70412;55.048;73.268;2024-01-15T05:15:50;100969.91;;;-22.14;83.58
59168;BME280;70412;55.048;73.268;2024-01-15T05:18:52;100969.03;;;-22.03;82.87
59168;BME280;70412;55.048;73.268;2024-01-15T05:21:55;100965.00;;;-22.01;82.43
59168;BME280;70412;55.048;73.268;2024-01-15T05:24:57;100934.22;;;-22.14;82.38
59168;BME280;70412;55.048;73.268;2024-01-15T05:28:00;100975.59;;;-21.80;81.84
59168;BME280;70412;55.048;73.268;2024-01-15T05:31:03;100970.09;;;-21.87;81.19
59168;BME280;70412;55.048;73.268;2024-01-15T05:34:06;100970.47;;;-21.69;81.65
59168;BME280;70412;55.048;73.268;2024-01-15T05:37:26;100965.03;;;-21.52;81.17
59168;BME280;70412;55.048;73.268;2024-01-15T05:40:28;100974.88;;;-21.54;80.23
59168;BME280;70412;55.048;73.268;2024-01-15T05:43:30;100985.31;;;-21.71;79.06
59168;BME280;70412;55.048;73.268;2024-01-15T05:46:33;100986.72;;;-21.63;79.59
59168;BME280;70412;55.048;73.268;2024-01-15T05:49:35;100990.47;;;-21.45;80.08
59168;BME280;70412;55.048;73.268;2024-01-15T05:52:38;100989.41;;;-21.35;78.93
59168;BME280;70412;55.048;73.268;2024-01-15T05:55:40;101001.84;;;-21.35;78.74
59168;BME280;70412;55.048;73.268;2024-01-15T05:58:43;100998.69;;;-21.46;78.15
59168;BME280;70412;55.048;73.268;2024-01-15T06:01:45;101011.13;;;-21.21;79.01
59168;BME280;70412;55.048;73.268;2024-01-15T06:04:48;101015.97;;;-21.11;78.79
59168;BME280;70412;55.048;73.268;2024-01-15T06:07:50;101018.50;;;-21.22;78.17
59168;BME280;70412;55.048;73.268;2024-01-15T06:10:53;101037.97;;;-21.17;78.08
59168;BME280;70412;55.048;73.268;2024-01-15T06:13:56;101038.13;;;-21.27;77.59
59168;BME280;70412;55.048;73.268;2024-01-15T06:16:58;101039.94;;;-21.24;77.23
59168;BME280;70412;55.048;73.268;2024-01-15T06:20:01;101049.81;;;-21.26;77.55
59168;BME280;70412;55.048;73.268;2024-01-15T06:23:03;101046.34;;;-21.28;76.94
59168;BME280;70412;55.048;73.268;2024-01-15T06:26:06;101048.09;;;-21.27;77.36
59168;BME280;70412;55.048;73.268;2024-01-15T06:29:08;101050.00;;;-21.23;77.41
59168;BME280;70412;55.048;73.268;2024-01-15T06:32:11;101055.38;;;-21.05;77.09
59168;BME280;70412;55.048;73.268;2024-01-15T06:35:13;101055.16;;;-20.96;76.92
59168;BME280;70412;55.048;73.268;2024-01-15T06:38:16;101064.66;;;-20.91;77.24
59168;BME280;70412;55.048;73.268;2024-01-15T06:41:18;101072.28;;;-20.76;77.07
59168;BME280;70412;55.048;73.268;2024-01-15T06:44:21;101078.47;;;-20.83;76.77
59168;BME280;70412;55.048;73.268;2024-01-15T06:47:23;101081.34;;;-20.90;76.25
59168;BME280;70412;55.048;73.268;2024-01-15T06:50:28;101063.38;;;-20.97;76.18
59168;BME280;70412;55.048;73.268;2024-01-15T06:53:31;101073.50;;;-20.83;76.54
59168;BME280;70412;55.048;73.268;2024-01-15T06:56:34;101096.84;;;-20.69;76.65
59168;BME280;70412;55.048;73.268;2024-01-15T06:59:38;101107.25;;;-20.63;76.38
59168;BME280;70412;55.048;73.268;2024-01-15T07:02:40;101089.47;;;-20.67;76.55
59168;BME280;70412;55.048;73.268;2024-01-15T07:05:42;101129.69;;;-20.50;76.32
59168;BME280;70412;55.048;73.268;2024-01-15T07:08:46;101128.81;;;-20.50;75.59
59168;BME280;70412;55.048;73.268;2024-01-15T07:11:48;101133.44;;;-20.56;75.52
59168;BME280;70412;55.048;73.268;2024-01-15T07:14:58;101156.94;;;-20.53;75.95
59168;BME280;70412;55.048;73.268;2024-01-15T07:18:01;101158.53;;;-20.41;76.12
59168;BME280;70412;55.048;73.268;2024-01-15T07:21:04;101163.13;;;-20.48;74.96
59168;BME280;70412;55.048;73.268;2024-01-15T07:24:06;101166.34;;;-20.49;75.42
59168;BME280;70412;55.048;73.268;2024-01-15T07:27:09;101173.97;;;-20.47;75.15
59168;BME280;70412;55.048;73.268;2024-01-15T07:30:17;101179.22;;;-20.56;74.82
59168;BME280;70412;55.048;73.268;2024-01-15T07:33:19;101178.59;;;-20.52;74.82
59168;BME280;70412;55.048;73.268;2024-01-15T07:36:21;101155.81;;;-20.69;74.80
59168;BME280;70412;55.048;73.268;2024-01-15T07:39:24;101157.34;;;-20.71;74.47
59168;BME280;70412;55.048;73.268;2024-01-15T07:42:27;101187.16;;;-20.48;75.16
59168;BME280;70412;55.048;73.268;2024-01-15T07:45:30;101174.81;;;-20.46;74.62
59168;BME280;70412;55.048;73.268;2024-01-15T07:48:32;101172.06;;;-20.38;74.92
59168;BME280;70412;55.048;73.268;2024-01-15T07:51:36;101178.75;;;-20.25;74.64
59168;BME280;70412;55.048;73.268;2024-01-15T07:54:38;101176.63;;;-20.19;74.62
59168;BME280;70412;55.048;73.268;2024-01-15T07:57:41;101157.19;;;-20.36;74.30
59168;BME280;70412;55.048;73.268;2024-01-15T08:00:43;101173.56;;;-20.15;74.28
59168;BME280;70412;55.048;73.268;2024-01-15T08:03:46;101180.56;;;-20.23;74.49
59168;BME280;70412;55.048;73.268;2024-01-15T08:06:49;101193.75;;;-20.12;74.19
59168;BME280;70412;55.048;73.268;2024-01-15T08:09:52;101207.78;;;-20.14;74.32
59168;BME280;70412;55.048;73.268;2024-01-15T08:12:54;101204.19;;;-20.18;74.08
59168;BME280;70412;55.048;73.268;2024-01-15T08:15:57;101211.78;;;-20.16;74.68
59168;BME280;70412;55.048;73.268;2024-01-15T08:19:05;101216.47;;;-19.96;74.67
59168;BME280;70412;55.048;73.268;2024-01-15T08:22:08;101228.19;;;-19.95;74.00
59168;BME280;70412;55.048;73.268;2024-01-15T08:25:12;101235.59;;;-19.96;73.83
59168;BME280;70412;55.048;73.268;2024-01-15T08:28:15;101218.44;;;-20.03;74.10
59168;BME280;70412;55.048;73.268;2024-01-15T08:31:17;101230.88;;;-19.92;74.35
59168;BME280;70412;55.048;73.268;2024-01-15T08:34:20;101205.28;;;-20.14;74.38
59168;BME280;70412;55.048;73.268;2024-01-15T08:37:22;101250.38;;;-19.86;74.10
59168;BME280;70412;55.048;73.268;2024-01-15T08:40:25;101244.19;;;-19.79;74.63
59168;BME280;70412;55.048;73.268;2024-01-15T08:43:32;101258.59;;;-19.75;74.35
59168;BME280;70412;55.048;73.268;2024-01-15T08:46:35;101252.44;;;-19.80;74.11
59168;BME280;70412;55.048;73.268;2024-01-15T08:49:37;101259.00;;;-19.69;74.35
59168;BME280;70412;55.048;73.268;2024-01-15T08:52:40;101251.50;;;-19.69;74.16
59168;BME280;70412;55.048;73.268;2024-01-15T08:55:43;101243.41;;;-19.78;73.29
59168;BME280;70412;55.048;73.268;2024-01-15T08:58:46;101270.31;;;-19.74;73.95
59168;BME280;70412;55.048;73.268;2024-01-15T09:01:48;101264.56;;;-19.73;74.31
59168;BME280;70412;55.048;73.268;2024-01-15T09:04:51;101269.06;;;-19.68;74.03
59168;BME280;70412;55.048;73.268;2024-01-15T09:07:54;101265.13;;;-19.64;74.21
59168;BME280;70412;55.048;73.268;2024-01-15T09:10:57;101267.84;;;-19.61;74.13
59168;BME280;70412;55.048;73.268;2024-01-15T09:14:00;101276.28;;;-19.59;74.47
59168;BME280;70412;55.048;73.268;2024-01-15T09:17:04;101279.84;;;-19.56;74.38
59168;BME280;70412;55.048;73.268;2024-01-15T09:20:10;101292.63;;;-19.51;74.60
59168;BME280;70412;55.048;73.268;2024-01-15T09:23:12;101288.91;;;-19.44;74.50
59168;BME280;70412;55.048;73.268;2024-01-15T09:26:15;101291.50;;;-19.43;74.66
59168;BME280;70412;55.048;73.268;2024-01-15T09:29:17;101306.69;;;-19.40;74.63
59168;BME280;70412;55.048;73.268;2024-01-15T09:32:20;101319.38;;;-19.37;74.44
59168;BME280;70412;55.048;73.268;2024-01-15T09:35:22;101325.34;;;-19.35;74.47
59168;BME280;70412;55.048;73.268;2024-01-15T09:38:25;101323.16;;;-19.30;74.60
59168;BME280;70412;55.048;73.268;2024-01-15T09:41:27;101333.59;;;-19.36;74.39
59168;BME280;70412;55.048;73.268;2024-01-15T09:44:31;101333.50;;;-19.37;74.75
59168;BME280;70412;55.048;73.268;2024-01-15T09:47:33;101340.16;;;-19.38;75.06
59168;BME280;70412;55.048;73.268;2024-01-15T09:50:36;101349.06;;;-19.41;74.80
59168;BME280;70412;55.048;73.268;2024-01-15T09:53:39;101316.00;;;-19.64;74.66
59168;BME280;70412;55.048;73.268;2024-01-15T09:56:46;101338.47;;;-19.50;75.33
59168;BME280;70412;55.048;73.268;2024-01-15T09:59:50;101342.06;;;-19.47;75.34
59168;BME280;70412;55.048;73.268;2024-01-15T10:02:54;101353.16;;;-19.55;74.94
59168;BME280;70412;55.048;73.268;2024-01-15T10:05:59;101356.81;;;-19.63;75.15
59168;BME280;70412;55.048;73.268;2024-01-15T10:09:03;101374.19;;;-19.65;75.56
59168;BME280;70412;55.048;73.268;2024-01-15T10:12:06;101363.38;;;-19.77;75.31
59168;BME280;70412;55.048;73.268;2024-01-15T10:15:12;101379.22;;;-19.76;75.44
59168;BME280;70412;55.048;73.268;2024-01-15T10:18:15;101384.47;;;-19.85;75.61
59168;BME280;70412;55.048;73.268;2024-01-15T10:21:18;101398.06;;;-19.93;75.62
59168;BME280;70412;55.048;73.268;2024-01-15T10:24:21;101392.31;;;-20.04;75.41
59168;BME280;70412;55.048;73.268;2024-01-15T10:27:23;101399.94;;;-20.14;76.09
59168;BME280;70412;55.048;73.268;2024-01-15T10:30:26;101386.16;;;-20.32;76.17
59168;BME280;70412;55.048;73.268;2024-01-15T10:33:28;101410.59;;;-20.28;76.11
59168;BME280;70412;55.048;73.268;2024-01-15T10:36:31;101411.66;;;-20.36;76.67
59168;BME280;70412;55.048;73.268;2024-01-15T10:39:38;101422.09;;;-20.42;76.83
59168;BME280;70412;55.048;73.268;2024-01-15T10:42:48;101395.31;;;-20.68;77.31
59168;BME280;70412;55.048;73.268;2024-01-15T10:45:51;101429.91;;;-20.61;77.48
59168;BME280;70412;55.048;73.268;2024-01-15T10:48:54;101422.75;;;-20.68;77.42
59168;BME280;70412;55.048;73.268;2024-01-15T10:51:57;101432.94;;;-20.76;77.77
59168;BME280;70412;55.048;73.268;2024-01-15T10:55:00;101431.38;;;-20.86;78.11
59168;BME280;70412;55.048;73.268;2024-01-15T10:58:04;101404.56;;;-21.12;78.07
59168;BME280;70412;55.048;73.268;2024-01-15T11:01:06;101419.41;;;-21.14;78.57
59168;BME280;70412;55.048;73.268;2024-01-15T11:04:09;101409.28;;;-21.27;78.68
59168;BME280;70412;55.048;73.268;2024-01-15T11:07:13;101444.19;;;-21.15;79.46
59168;BME280;70412;55.048;73.268;2024-01-15T11:10:48;101451.22;;;-21.21;79.58
59168;BME280;70412;55.048;73.268;2024-01-15T11:13:53;101447.47;;;-21.38;79.75
59168;BME280;70412;55.048;73.268;2024-01-15T11:16:57;101442.47;;;-21.50;80.05
59168;BME280;70412;55.048;73.268;2024-01-15T11:20:06;101463.94;;;-21.40;80.15
59168;BME280;70412;55.048;73.268;2024-01-15T11:23:08;101465.03;;;-21.48;80.64
59168;BME280;70412;55.048;73.268;2024-01-15T11:26:46;101473.75;;;-21.53;80.85
59168;BME280;70412;55.048;73.268;2024-01-15T11:30:03;101482.50;;;-21.58;81.45
59168;BME280;70412;55.048;73.268;2024-01-15T11:33:06;101479.03;;;-21.60;81.50
59168;BME280;70412;55.048;73.268;2024-01-15T11:36:09;101479.41;;;-21.66;81.30
59168;BME280;70412;55.048;73.268;2024-01-15T11:42:34;101461.63;;;-21.71;83.09
59168;BME280;70412;55.048;73.268;2024-01-15T11:45:39;101469.84;;;-21.72;83.08
59168;BME280;70412;55.048;73.268;2024-01-15T11:48:44;101475.88;;;-21.80;82.58
59168;BME280;70412;55.048;73.268;2024-01-15T11:51:50;101479.13;;;-21.81;83.16
59168;BME280;70412;55.048;73.268;2024-01-15T11:55:06;101477.50;;;-21.80;83.83
59168;BME280;70412;55.048;73.268;2024-01-15T11:58:10;101475.13;;;-21.79;84.15
59168;BME280;70412;55.048;73.268;2024-01-15T12:01:12;101491.69;;;-21.79;84.09
59168;BME280;70412;55.048;73.268;2024-01-15T12:04:15;101483.59;;;-21.87;84.36
59168;BME280;70412;55.048;73.268;2024-01-15T12:07:19;101486.63;;;-21.91;84.35
59168;BME280;70412;55.048;73.268;2024-01-15T12:10:42;101462.31;;;-22.15;84.78
59168;BME280;70412;55.048;73.268;2024-01-15T12:13:44;101495.38;;;-22.06;84.61
59168;BME280;70412;55.048;73.268;2024-01-15T12:17:01;101508.09;;;-22.13;85.02
59168;BME280;70412;55.048;73.268;2024-01-15T12:20:07;101507.22;;;-22.14;85.23
59168;BME280;70412;55.048;73.268;2024-01-15T12:23:29;101481.81;;;-22.31;85.53
59168;BME280;70412;55.048;73.268;2024-01-15T12:26:50;101514.06;;;-22.21;85.84
59168;BME280;70412;55.048;73.268;2024-01-15T12:29:55;101521.19;;;-22.26;86.57
59168;BME280;70412;55.048;73.268;2024-01-15T12:32:58;101521.94;;;-22.27;86.47
59168;BME280;70412;55.048;73.268;2024-01-15T12:36:00;101530.28;;;-22.26;86.66
59168;BME280;70412;55.048;73.268;2024-01-15T12:39:03;101533.97;;;-22.21;86.75
59168;BME280;70412;55.048;73.268;2024-01-15T12:42:06;101533.34;;;-22.19;87.36
59168;BME280;70412;55.048;73.268;2024-01-15T12:45:12;101551.50;;;-22.20;86.71
59168;BME280;70412;55.048;73.268;2024-01-15T12:48:15;101530.03;;;-22.29;87.42
59168;BME280;70412;55.048;73.268;2024-01-15T12:51:24;101554.97;;;-22.18;87.26
59168;BME280;70412;55.048;73.268;2024-01-15T12:54:27;101549.31;;;-22.27;87.54
59168;BME280;70412;55.048;73.268;2024-01-15T12:57:30;101556.66;;;-22.28;87.53
59168;BME280;70412;55.048;73.268;2024-01-15T13:00:33;101563.59;;;-22.24;87.48
59168;BME280;70412;55.048;73.268;2024-01-15T13:03:36;101529.94;;;-22.41;87.86
59168;BME280;70412;55.048;73.268;2024-01-15T13:06:38;101571.56;;;-22.28;87.64
59168;BME280;70412;55.048;73.268;2024-01-15T13:09:41;101575.69;;;-22.29;88.23
59168;BME280;70412;55.048;73.268;2024-01-15T13:13:09;101585.88;;;-22.26;88.42
59168;BME280;70412;55.048;73.268;2024-01-15T13:16:20;101593.22;;;-22.27;88.26
59168;BME280;70412;55.048;73.268;2024-01-15T13:19:22;101593.19;;;-22.38;88.66
59168;BME280;70412;55.048;73.268;2024-01-15T13:22:25;101611.34;;;-22.39;88.01
59168;BME280;70412;55.048;73.268;2024-01-15T13:25:32;101577.53;;;-22.57;88.59
59168;BME280;70412;55.048;73.268;2024-01-15T13:28:38;101606.25;;;-22.40;89.07
59168;BME280;70412;55.048;73.268;2024-01-15T13:32:00;101616.84;;;-22.43;88.50
59168;BME280;70412;55.048;73.268;2024-01-15T13:35:03;101628.91;;;-22.47;88.92
59168;BME280;70412;55.048;73.268;2024-01-15T13:38:09;101638.97;;;-22.46;89.10
59168;BME280;70412;55.048;73.268;2024-01-15T13:41:27;101640.06;;;-22.52;88.90
59168;BME280;70412;55.048;73.268;2024-01-15T13:44:29;101638.69;;;-22.59;89.27
59168;BME280;70412;55.048;73.268;2024-01-15T13:47:32;101646.66;;;-22.63;89.26
59168;BME280;70412;55.048;73.268;2024-01-15T13:50:35;101635.09;;;-22.63;89.79
59168;BME280;70412;55.048;73.268;2024-01-15T13:53:42;101641.69;;;-22.63;89.93
59168;BME280;70412;55.048;73.268;2024-01-15T13:56:45;101653.34;;;-22.62;89.61
59168;BME280;70412;55.048;73.268;2024-01-15T13:59:49;101659.31;;;-22.60;89.86
59168;BME280;70412;55.048;73.268;2024-01-15T14:02:51;101659.31;;;-22.60;90.35
59168;BME280;70412;55.048;73.268;2024-01-15T14:06:07;101665.91;;;-22.60;90.25
59168;BME280;70412;55.048;73.268;2024-01-15T14:09:10;101667.66;;;-22.59;90.10
59168;BME280;70412;55.048;73.268;2024-01-15T14:12:19;101668.03;;;-22.65;89.99
59168;BME280;70412;55.048;73.268;2024-01-15T14:15:27;101678.44;;;-22.69;89.77
59168;BME280;70412;55.048;73.268;2024-01-15T14:18:29;101685.25;;;-22.77;89.95
59168;BME280;70412;55.048;73.268;2024-01-15T14:21:32;101694.81;;;-22.81;90.19
59168;BME280;70412;55.048;73.268;2024-01-15T14:24:34;101581.59;;;-23.47;90.03
59168;BME280;70412;55.048;73.268;2024-01-15T14:27:36;101690.53;;;-22.92;90.90
59168;BME280;70412;55.048;73.268;2024-01-15T14:30:39;101692.06;;;-22.84;91.26
59168;BME280;70412;55.048;73.268;2024-01-15T14:33:41;101696.28;;;-22.83;91.21
59168;BME280;70412;55.048;73.268;2024-01-15T14:36:44;101699.78;;;-22.81;91.27
59168;BME280;70412;55.048;73.268;2024-01-15T14:39:50;101703.03;;;-22.82;91.12
59168;BME280;70412;55.048;73.268;2024-01-15T14:42:56;101691.31;;;-22.83;91.42
59168;BME280;70412;55.048;73.268;2024-01-15T14:45:58;101706.22;;;-22.83;91.38
59168;BME280;70412;55.048;73.268;2024-01-15T14:49:01;101704.47;;;-22.84;91.42
59168;BME280;70412;55.048;73.268;2024-01-15T14:52:04;101718.13;;;-22.89;91.56
59168;BME280;70412;55.048;73.268;2024-01-15T14:55:07;101729.06;;;-22.87;92.10
59168;BME280;70412;55.048;73.268;2024-01-15T14:58:10;101732.56;;;-22.85;92.06
59168;BME280;70412;55.048;73.268;2024-01-15T15:01:14;101731.16;;;-22.92;91.98
59168;BME280;70412;55.048;73.268;2024-01-15T15:04:16;101716.84;;;-23.05;91.85
59168;BME280;70412;55.048;73.268;2024-01-15T15:07:18;101742.47;;;-22.96;91.84
59168;BME280;70412;55.048;73.268;2024-01-15T15:10:21;101749.03;;;-22.96;92.17
59168;BME280;70412;55.048;73.268;2024-01-15T15:13:23;101739.72;;;-22.99;92.16
59168;BME280;70412;55.048;73.268;2024-01-15T15:16:27;101749.50;;;-23.00;92.37
59168;BME280;70412;55.048;73.268;2024-01-15T15:19:30;101747.91;;;-23.00;92.43
59168;BME280;70412;55.048;73.268;2024-01-15T15:22:33;101745.16;;;-23.03;92.20
59168;BME280;70412;55.048;73.268;2024-01-15T15:25:35;101683.63;;;-23.44;92.05
59168;BME280;70412;55.048;73.268;2024-01-15T15:28:38;101753.03;;;-23.17;92.54
59168;BME280;70412;55.048;73.268;2024-01-15T15:31:40;101771.25;;;-23.08;92.67
59168;BME280;70412;55.048;73.268;2024-01-15T15:34:43;101761.91;;;-23.10;92.62
59168;BME280;70412;55.048;73.268;2024-01-15T15:37:46;101745.59;;;-23.17;92.89
59168;BME280;70412;55.048;73.268;2024-01-15T15:40:48;101769.03;;;-23.05;92.85